Time;durP1;ratioP1;P1;durP2;ratioP2;P2;SDS_P1;SDS_P2;PMS_P1;PMS_P2;Temp;Humidity;BMP_temperature;BMP_pressure;BME280_temperature;BME280_humidity;BME280_pressure;Samples;Min_cycle;Max_cycle;Signal;HPM_P1;HPM_P2
2024/01/07 00:01:47;;;;;;;;;;;;;;;1.45;62.13;99118.82;109309;1253;72733;-62
2024/01/07 00:04:15;;;;;;;;;;;;;;;1.50;62.04;99112.67;109435;1255;61788;-60
2024/01/07 00:06:42;;;;;;;;;;;;;;;1.82;61.21;99106.55;109539;1253;60062;-60
2024/01/07 00:09:13;;;;;;;;;;;;;;;1.71;60.79;99107.76;109208;1252;75538;-60
2024/01/07 00:11:40;;;;;;;;;;;;;;;1.66;60.25;99106.95;109259;1253;67391;-60
2024/01/07 00:14:08;;;;;;;;;;;;;;;1.76;60.37;99110.39;109567;1252;71474;-59
2024/01/07 00:16:35;;;;;;;;;;;;;;;1.75;60.58;99121.95;109120;1257;60446;-60
2024/01/07 00:19:03;;;;;;;;;;;;;;;1.73;59.93;99124.98;109473;1252;59878;-60
2024/01/07 00:21:31;;;;;;;;;;;;;;;1.82;60.36;99134.45;109618;1254;75504;-61
2024/01/07 00:23:58;;;;;;;;;;;;;;;1.84;59.42;99123.08;109577;1253;68822;-59
2024/01/07 00:26:26;;;;;;;;;;;;;;;1.76;59.49;99121.23;109573;1253;71317;-61
2024/01/07 00:28:53;;;;;;;;;;;;;;;1.64;59.78;99119.73;109603;1254;60458;-60
2024/01/07 00:31:20;;;;;;;;;;;;;;;1.47;60.31;99119.77;109666;1254;59898;-60
2024/01/07 00:33:48;;;;;;;;;;;;;;;1.84;59.95;99131.48;109589;1253;75498;-63
2024/01/07 00:36:16;;;;;;;;;;;;;;;1.83;59.54;99131.14;109357;1254;67989;-64
2024/01/07 00:38:43;;;;;;;;;;;;;;;1.64;60.11;99132.11;109551;1252;72744;-63
2024/01/07 00:41:12;;;;;;;;;;;;;;;1.93;59.50;99136.70;109543;1253;60506;-64
2024/01/07 00:43:40;;;;;;;;;;;;;;;1.73;59.30;99134.94;109573;1253;59874;-63
2024/01/07 00:46:08;;;;;;;;;;;;;;;1.65;59.75;99142.24;109505;1252;74310;-65
2024/01/07 00:48:35;;;;;;;;;;;;;;;1.46;60.13;99146.66;109157;1253;68829;-61
2024/01/07 00:51:03;;;;;;;;;;;;;;;1.82;59.02;99148.44;109408;1254;71568;-63
2024/01/07 00:53:31;;;;;;;;;;;;;;;1.62;59.45;99144.56;109306;1253;61729;-64
2024/01/07 00:55:58;;;;;;;;;;;;;;;1.66;59.09;99145.38;109603;1253;59846;-64
2024/01/07 00:58:25;;;;;;;;;;;;;;;1.51;59.39;99140.71;109566;1253;74434;-64
2024/01/07 01:00:53;;;;;;;;;;;;;;;1.68;59.40;99145.95;109686;1252;68822;-62
2024/01/07 01:03:22;;;;;;;;;;;;;;;1.62;59.06;99137.86;109551;1253;72761;-61
2024/01/07 01:05:50;;;;;;;;;;;;;;;1.29;59.20;99148.94;109473;1252;60485;-63
2024/01/07 01:08:17;;;;;;;;;;;;;;;1.13;59.87;99137.79;109303;1254;59888;-63
2024/01/07 01:10:45;;;;;;;;;;;;;;;1.01;59.93;99135.02;109351;1253;75518;-62
2024/01/07 01:13:12;;;;;;;;;;;;;;;1.18;59.78;99131.94;109416;1254;67684;-62
2024/01/07 01:15:40;;;;;;;;;;;;;;;1.15;59.76;99133.73;109370;1253;71461;-62
2024/01/07 01:18:07;;;;;;;;;;;;;;;1.08;59.80;99131.89;108706;1252;1002255;-61
2024/01/07 01:20:35;;;;;;;;;;;;;;;1.28;59.39;99130.63;109494;1253;62019;-63
2024/01/07 01:23:02;;;;;;;;;;;;;;;1.26;58.70;99131.33;109364;1253;74249;-64
2024/01/07 01:25:30;;;;;;;;;;;;;;;1.10;59.33;99128.06;109203;1253;67545;-64
2024/01/07 01:27:58;;;;;;;;;;;;;;;1.28;59.26;99129.34;109170;1257;72696;-64
2024/01/07 01:30:27;;;;;;;;;;;;;;;1.17;59.70;99121.48;109145;1258;60465;-63
2024/01/07 01:32:55;;;;;;;;;;;;;;;1.22;59.12;99128.27;109261;1257;59745;-63
2024/01/07 01:35:23;;;;;;;;;;;;;;;1.20;58.96;99132.83;109069;1255;75541;-61
2024/01/07 01:37:50;;;;;;;;;;;;;;;1.17;59.09;99133.69;109303;1257;68607;-64
2024/01/07 01:40:18;;;;;;;;;;;;;;;1.28;59.27;99127.95;109096;1257;72720;-60
2024/01/07 01:42:46;;;;;;;;;;;;;;;1.42;58.94;99126.92;107731;1256;1002446;-59
2024/01/07 01:45:14;;;;;;;;;;;;;;;1.13;59.40;99132.95;109335;1256;59830;-61
2024/01/07 01:47:41;;;;;;;;;;;;;;;1.04;59.64;99137.79;109122;1258;75518;-61
2024/01/07 01:50:09;;;;;;;;;;;;;;;1.18;59.14;99146.49;109191;1257;68799;-60
2024/01/07 01:52:36;;;;;;;;;;;;;;;1.06;59.53;99143.77;109078;1257;70478;-62
2024/01/07 01:55:04;;;;;;;;;;;;;;;1.04;60.40;99151.17;109083;1261;59777;-59
2024/01/07 01:57:37;;;;;;;;;;;;;;;1.30;59.68;99153.49;109173;1257;60246;-60
2024/01/07 02:00:05;;;;;;;;;;;;;;;1.16;59.25;99146.13;109332;1256;75455;-60
2024/01/07 02:02:34;;;;;;;;;;;;;;;0.79;60.11;99138.80;109207;1256;67657;-60
2024/01/07 02:05:05;;;;;;;;;;;;;;;0.88;60.20;99143.48;109158;1257;71468;-60
2024/01/07 02:07:32;;;;;;;;;;;;;;;0.62;60.27;99143.03;109129;1257;61972;-61
2024/01/07 02:10:00;;;;;;;;;;;;;;;0.79;60.08;99146.25;109315;1254;59945;-60
2024/01/07 02:12:27;;;;;;;;;;;;;;;0.69;60.36;99143.09;109366;1255;75565;-62
2024/01/07 02:14:55;;;;;;;;;;;;;;;1.05;59.83;99143.92;109418;1254;67605;-60
2024/01/07 02:17:23;;;;;;;;;;;;;;;0.85;59.82;99139.10;109340;1253;72414;-61
2024/01/07 02:19:50;;;;;;;;;;;;;;;0.60;60.33;99142.78;109421;1253;61745;-59
2024/01/07 02:22:18;;;;;;;;;;;;;;;0.88;59.54;99144.16;109582;1253;59763;-59
2024/01/07 02:24:46;;;;;;;;;;;;;;;0.69;59.60;99141.30;109640;1253;74206;-60
2024/01/07 02:27:13;;;;;;;;;;;;;;;0.45;60.00;99139.32;109548;1253;67829;-59
2024/01/07 02:29:41;;;;;;;;;;;;;;;0.53;60.03;99144.35;109339;1253;72743;-59
2024/01/07 02:32:08;;;;;;;;;;;;;;;0.52;60.14;99151.29;109519;1253;61744;-59
2024/01/07 02:34:36;;;;;;;;;;;;;;;0.51;60.22;99149.02;109496;1252;59874;-59
2024/01/07 02:37:03;;;;;;;;;;;;;;;0.69;59.69;99155.97;109554;1253;75506;-59
2024/01/07 02:39:31;;;;;;;;;;;;;;;0.75;59.33;99155.59;109583;1253;68495;-59
2024/01/07 02:41:58;;;;;;;;;;;;;;;0.54;59.82;99155.44;109555;1253;72715;-59
2024/01/07 02:44:26;;;;;;;;;;;;;;;0.55;60.30;99155.32;109578;1254;60463;-59
2024/01/07 02:46:54;;;;;;;;;;;;;;;0.69;59.86;99152.11;109545;1255;60671;-59
2024/01/07 02:49:21;;;;;;;;;;;;;;;0.42;59.98;99151.83;109487;1253;74575;-59
2024/01/07 02:51:49;;;;;;;;;;;;;;;0.59;59.70;99156.70;109484;1252;68241;-59
2024/01/07 02:54:17;;;;;;;;;;;;;;;0.45;59.52;99159.91;109469;1254;72732;-59
2024/01/07 02:56:44;;;;;;;;;;;;;;;0.47;59.44;99162.48;109388;1254;60343;-62
2024/01/07 02:59:12;;;;;;;;;;;;;;;0.28;59.70;99159.33;109404;1254;60663;-60
2024/01/07 03:01:40;;;;;;;;;;;;;;;0.19;60.29;99158.55;109271;1254;75502;-60
2024/01/07 03:04:13;;;;;;;;;;;;;;;0.03;60.68;99162.26;109201;1254;66753;-60
2024/01/07 03:06:40;;;;;;;;;;;;;;;0.21;60.18;99157.63;109332;1254;70912;-61
2024/01/07 03:09:10;;;;;;;;;;;;;;;0.12;59.73;99163.55;109386;1254;61739;-60
2024/01/07 03:11:43;;;;;;;;;;;;;;;0.16;59.67;99171.73;109413;1254;59924;-61
2024/01/07 03:14:10;;;;;;;;;;;;;;;0.17;59.57;99179.54;109437;1254;75517;-60
2024/01/07 03:16:38;;;;;;;;;;;;;;;0.07;59.35;99177.74;109407;1254;68521;-60
2024/01/07 03:19:05;;;;;;;;;;;;;;;0.03;59.92;99181.94;109402;1254;71418;-60
2024/01/07 03:21:33;;;;;;;;;;;;;;;0.19;59.37;99186.82;109350;1257;61730;-60
2024/01/07 03:24:00;;;;;;;;;;;;;;;0.11;59.57;99180.11;109281;1257;59845;-59
2024/01/07 03:26:29;;;;;;;;;;;;;;;0.22;59.39;99190.44;109129;1256;77686;-62
2024/01/07 03:28:59;;;;;;;;;;;;;;;0.06;59.40;99188.78;109354;1253;68915;-60
2024/01/07 03:31:27;;;;;;;;;;;;;;;-0.13;60.26;99187.23;109245;1254;71485;-60
2024/01/07 03:33:55;;;;;;;;;;;;;;;-0.09;60.56;99191.08;109449;1254;60231;-60
2024/01/07 03:36:22;;;;;;;;;;;;;;;0.04;59.99;99187.90;109397;1254;59887;-60
2024/01/07 03:38:50;;;;;;;;;;;;;;;-0.29;60.86;99186.23;109413;1254;74200;-59
2024/01/07 03:41:18;;;;;;;;;;;;;;;-0.18;60.77;99187.81;109441;1254;68854;-60
2024/01/07 03:43:46;;;;;;;;;;;;;;;-0.05;60.42;99193.51;109416;1254;72732;-60
2024/01/07 03:46:13;;;;;;;;;;;;;;;0.03;59.92;99193.95;109439;1254;60458;-60
2024/01/07 03:48:41;;;;;;;;;;;;;;;0.00;59.91;99197.10;109152;1254;59955;-61
2024/01/07 03:51:09;;;;;;;;;;;;;;;-0.06;60.27;99193.38;109387;1254;74256;-61
2024/01/07 03:53:36;;;;;;;;;;;;;;;0.17;60.07;99206.36;109427;1253;68803;-62
2024/01/07 03:56:04;;;;;;;;;;;;;;;-0.01;60.26;99202.17;109536;1254;71405;-61
2024/01/07 03:58:31;;;;;;;;;;;;;;;-0.09;60.42;99202.89;109595;1252;61742;-60
2024/01/07 04:00:59;;;;;;;;;;;;;;;-0.02;60.22;99199.86;109578;1254;59899;-62
2024/01/07 04:03:26;;;;;;;;;;;;;;;-0.11;60.56;99206.41;109351;1253;75538;-60
2024/01/07 04:05:54;;;;;;;;;;;;;;;0.00;60.44;99210.16;109600;1253;68937;-61
2024/01/07 04:08:21;;;;;;;;;;;;;;;0.08;60.42;99210.71;109545;1253;71439;-60
2024/01/07 04:10:49;;;;;;;;;;;;;;;0.03;60.58;99208.69;109470;1254;61789;-61
2024/01/07 04:13:16;;;;;;;;;;;;;;;-0.07;60.81;99210.21;109451;1253;59985;-60
2024/01/07 04:15:44;;;;;;;;;;;;;;;-0.18;60.71;99207.55;109482;1253;75554;-63
2024/01/07 04:18:11;;;;;;;;;;;;;;;-0.10;60.90;99212.66;109534;1253;68734;-61
2024/01/07 04:20:39;;;;;;;;;;;;;;;-0.05;60.18;99207.13;109540;1252;71457;-59
2024/01/07 04:23:06;;;;;;;;;;;;;;;0.02;59.90;99207.95;109532;1253;60905;-59
2024/01/07 04:25:34;;;;;;;;;;;;;;;-0.07;60.24;99208.91;109340;1251;59768;-60
2024/01/07 04:28:01;;;;;;;;;;;;;;;-0.06;60.09;99208.30;109589;1251;75491;-60
2024/01/07 04:30:28;;;;;;;;;;;;;;;-0.06;59.76;99208.83;109520;1252;68816;-60
2024/01/07 04:32:56;;;;;;;;;;;;;;;0.11;59.38;99215.27;109485;1252;71433;-59
2024/01/07 04:35:24;;;;;;;;;;;;;;;-0.09;59.53;99213.08;109345;1252;60478;-59
2024/01/07 04:37:51;;;;;;;;;;;;;;;-0.09;59.61;99213.28;109481;1252;59846;-58
2024/01/07 04:40:19;;;;;;;;;;;;;;;0.16;59.09;99215.18;109501;1252;74306;-60
2024/01/07 04:42:46;;;;;;;;;;;;;;;-0.02;59.58;99216.05;109512;1252;70039;-62
2024/01/07 04:45:13;;;;;;;;;;;;;;;-0.12;59.46;99218.50;109429;1253;72716;-59
2024/01/07 04:47:41;;;;;;;;;;;;;;;-0.41;60.12;99216.73;109520;1254;61617;-60
2024/01/07 04:50:08;;;;;;;;;;;;;;;-0.32;59.49;99213.72;109553;1253;59982;-60
2024/01/07 04:52:36;;;;;;;;;;;;;;;-0.29;59.66;99221.70;109352;1254;75452;-59
2024/01/07 04:55:03;;;;;;;;;;;;;;;-0.10;59.47;99228.69;109412;1254;69097;-60
2024/01/07 04:57:31;;;;;;;;;;;;;;;-0.22;59.47;99226.14;109373;1254;71859;-60
2024/01/07 04:59:58;;;;;;;;;;;;;;;-0.24;59.20;99233.45;109346;1256;61932;-61
2024/01/07 05:02:26;;;;;;;;;;;;;;;-0.48;59.29;99232.38;109375;1254;59822;-62
2024/01/07 05:04:53;;;;;;;;;;;;;;;-0.49;59.60;99240.36;109085;1254;74224;-60
2024/01/07 05:07:21;;;;;;;;;;;;;;;-0.47;59.77;99247.11;109074;1254;67610;-61
2024/01/07 05:09:48;;;;;;;;;;;;;;;-0.57;59.59;99246.40;109085;1256;71607;-60
2024/01/07 05:12:16;;;;;;;;;;;;;;;-0.51;59.33;99240.02;109113;1256;61919;-60
2024/01/07 05:14:43;;;;;;;;;;;;;;;-0.49;58.84;99243.85;109172;1256;59851;-59
2024/01/07 05:17:11;;;;;;;;;;;;;;;-0.49;59.13;99251.77;109248;1256;75537;-60
2024/01/07 05:19:41;;;;;;;;;;;;;;;-0.67;59.63;99251.76;109293;1256;67730;-59
2024/01/07 05:22:09;;;;;;;;;;;;;;;-0.65;59.30;99257.13;109424;1253;71488;-59
2024/01/07 05:24:38;;;;;;;;;;;;;;;-0.72;59.27;99253.54;109253;1253;175737;-59
2024/01/07 05:27:06;;;;;;;;;;;;;;;-0.68;59.00;99252.33;109394;1253;59786;-59
2024/01/07 05:29:33;;;;;;;;;;;;;;;-1.00;59.28;99248.14;109427;1252;75528;-59
2024/01/07 05:32:02;;;;;;;;;;;;;;;-1.07;59.35;99256.09;109452;1253;68821;-62
2024/01/07 05:34:30;;;;;;;;;;;;;;;-1.20;59.91;99250.59;109467;1254;73086;-59
2024/01/07 05:36:57;;;;;;;;;;;;;;;-1.02;59.68;99255.34;109380;1253;60488;-61
2024/01/07 05:39:25;;;;;;;;;;;;;;;-1.21;59.90;99250.77;109416;1253;59839;-59
2024/01/07 05:41:52;;;;;;;;;;;;;;;-1.10;59.86;99258.73;109393;1253;75500;-60
2024/01/07 05:44:20;;;;;;;;;;;;;;;-1.30;59.81;99250.23;109465;1253;68829;-61
2024/01/07 05:46:47;;;;;;;;;;;;;;;-1.33;59.69;99252.30;109383;1253;71463;-60
2024/01/07 05:49:15;;;;;;;;;;;;;;;-1.24;59.54;99253.67;109477;1252;61555;-60
2024/01/07 05:51:42;;;;;;;;;;;;;;;-1.17;59.06;99257.63;109463;1253;59887;-61
2024/01/07 05:54:10;;;;;;;;;;;;;;;-1.26;58.99;99255.59;109410;1253;74314;-61
2024/01/07 05:56:38;;;;;;;;;;;;;;;-1.32;59.41;99256.94;109485;1252;67682;-60
2024/01/07 05:59:06;;;;;;;;;;;;;;;-1.49;60.27;99258.96;108722;1252;1002700;-60
2024/01/07 06:01:34;;;;;;;;;;;;;;;-1.50;59.55;99249.09;109103;1253;61775;-60
2024/01/07 06:04:02;;;;;;;;;;;;;;;-1.66;59.84;99254.39;109470;1253;59838;-59
2024/01/07 06:06:30;;;;;;;;;;;;;;;-1.55;59.52;99258.14;109430;1252;75553;-60
2024/01/07 06:08:58;;;;;;;;;;;;;;;-1.49;59.33;99257.98;109357;1252;68902;-60
2024/01/07 06:11:25;;;;;;;;;;;;;;;-1.53;59.68;99261.23;109521;1252;71469;-60
2024/01/07 06:13:53;;;;;;;;;;;;;;;-1.54;59.73;99264.27;109482;1252;62565;-60
2024/01/07 06:16:20;;;;;;;;;;;;;;;-1.75;58.80;99260.66;109216;1252;59690;-60
2024/01/07 06:18:48;;;;;;;;;;;;;;;-1.95;59.10;99267.09;109309;1253;75516;-60
2024/01/07 06:21:16;;;;;;;;;;;;;;;-1.86;59.06;99267.09;109449;1252;68800;-59
2024/01/07 06:23:43;;;;;;;;;;;;;;;-1.93;59.11;99266.48;109424;1252;73187;-59
2024/01/07 06:26:10;;;;;;;;;;;;;;;-1.86;58.94;99262.53;109514;1251;60775;-58
2024/01/07 06:28:38;;;;;;;;;;;;;;;-2.09;59.54;99260.98;109518;1252;59862;-59
2024/01/07 06:31:05;;;;;;;;;;;;;;;-1.97;59.18;99263.06;109542;1252;75617;-60
2024/01/07 06:33:33;;;;;;;;;;;;;;;-1.93;58.89;99266.40;109492;1251;67968;-59
2024/01/07 06:36:01;;;;;;;;;;;;;;;-1.73;58.03;99270.20;109526;1252;71463;-59
2024/01/07 06:38:29;;;;;;;;;;;;;;;-1.75;57.59;99266.13;109521;1252;60488;-61
2024/01/07 06:41:00;;;;;;;;;;;;;;;-1.75;57.08;99274.02;109548;1251;59786;-61
2024/01/07 06:43:28;;;;;;;;;;;;;;;-1.83;56.89;99272.13;109464;1253;75549;-61
2024/01/07 06:45:55;;;;;;;;;;;;;;;-1.87;56.89;99274.45;109200;1252;67579;-61
2024/01/07 06:48:23;;;;;;;;;;;;;;;-1.99;56.90;99281.83;109384;1251;72710;-63
2024/01/07 06:50:50;;;;;;;;;;;;;;;-1.90;56.96;99283.28;109594;1252;63503;-60
2024/01/07 06:53:18;;;;;;;;;;;;;;;-1.96;56.31;99291.90;109603;1251;59741;-60
2024/01/07 06:55:45;;;;;;;;;;;;;;;-2.10;56.80;99290.41;109604;1252;75549;-61
2024/01/07 06:58:13;;;;;;;;;;;;;;;-1.93;56.67;99292.55;109583;1252;67484;-63
2024/01/07 07:00:40;;;;;;;;;;;;;;;-1.90;55.78;99292.45;109600;1251;72753;-64
2024/01/07 07:03:08;;;;;;;;;;;;;;;-1.95;55.86;99295.26;109374;1253;60439;-62
2024/01/07 07:05:36;;;;;;;;;;;;;;;-2.06;56.18;99294.77;109604;1252;59909;-63
2024/01/07 07:08:03;;;;;;;;;;;;;;;-2.10;56.12;99298.79;109626;1251;74311;-65
2024/01/07 07:10:31;;;;;;;;;;;;;;;-2.01;55.84;99301.52;109561;1252;67967;-63
2024/01/07 07:12:59;;;;;;;;;;;;;;;-2.06;55.61;99300.95;109549;1252;72747;-64
2024/01/07 07:15:28;;;;;;;;;;;;;;;-2.25;55.62;99301.98;109560;1252;61733;-60
2024/01/07 07:17:57;;;;;;;;;;;;;;;-2.35;55.87;99303.11;109560;1252;59676;-61
2024/01/07 07:20:24;;;;;;;;;;;;;;;-2.41;56.28;99309.35;109526;1251;75579;-62
2024/01/07 07:22:52;;;;;;;;;;;;;;;-2.38;55.64;99309.17;109552;1252;68588;-60
2024/01/07 07:25:19;;;;;;;;;;;;;;;-2.14;55.71;99307.95;109552;1252;72693;-61
2024/01/07 07:27:47;;;;;;;;;;;;;;;-2.05;54.78;99307.85;109514;1252;61825;-60
2024/01/07 07:30:14;;;;;;;;;;;;;;;-2.26;55.63;99311.81;109550;1252;59847;-65
2024/01/07 07:32:42;;;;;;;;;;;;;;;-2.41;55.76;99311.06;109450;1253;74589;-61
2024/01/07 07:35:09;;;;;;;;;;;;;;;-2.32;55.12;99309.32;109378;1252;67633;-61
2024/01/07 07:37:38;;;;;;;;;;;;;;;-2.21;54.86;99311.84;109473;1253;72737;-61
2024/01/07 07:40:05;;;;;;;;;;;;;;;-2.21;54.68;99312.12;109565;1252;60461;-62
2024/01/07 07:42:33;;;;;;;;;;;;;;;-2.12;54.29;99313.85;109323;1253;59746;-61
2024/01/07 07:45:02;;;;;;;;;;;;;;;-2.13;54.14;99314.23;109529;1252;75513;-60
2024/01/07 07:47:30;;;;;;;;;;;;;;;-2.00;53.88;99320.56;109404;1252;68617;-60
2024/01/07 07:49:57;;;;;;;;;;;;;;;-1.94;54.03;99321.70;109454;1253;72708;-60
2024/01/07 07:52:25;;;;;;;;;;;;;;;-2.18;54.11;99317.36;109509;1252;60561;-61
2024/01/07 07:54:53;;;;;;;;;;;;;;;-2.35;54.29;99319.93;109481;1253;59714;-61
2024/01/07 07:57:22;;;;;;;;;;;;;;;-2.31;54.24;99320.41;109558;1252;75639;-64
2024/01/07 07:59:49;;;;;;;;;;;;;;;-2.54;54.06;99314.91;109516;1256;67997;-63
2024/01/07 08:02:17;;;;;;;;;;;;;;;-2.47;54.46;99316.00;109540;1252;72711;-61
2024/01/07 08:04:44;;;;;;;;;;;;;;;-2.37;54.37;99314.01;109533;1252;59763;-60
2024/01/07 08:07:12;;;;;;;;;;;;;;;-2.38;54.47;99316.50;109532;1252;60368;-60
2024/01/07 08:09:39;;;;;;;;;;;;;;;-2.41;53.81;99309.55;109520;1252;74268;-61
2024/01/07 08:12:07;;;;;;;;;;;;;;;-2.23;53.80;99319.98;109466;1253;68517;-60
2024/01/07 08:14:35;;;;;;;;;;;;;;;-2.22;53.31;99313.52;109438;1253;74650;-60
2024/01/07 08:17:04;;;;;;;;;;;;;;;-2.05;53.12;99321.98;109438;1253;61730;-65
2024/01/07 08:19:32;;;;;;;;;;;;;;;-1.96;53.26;99317.50;109501;1252;59854;-62
2024/01/07 08:21:59;;;;;;;;;;;;;;;-1.78;52.68;99313.35;109580;1252;75524;-66
2024/01/07 08:24:27;;;;;;;;;;;;;;;-2.23;53.09;99316.74;109559;1252;68898;-61
2024/01/07 08:26:55;;;;;;;;;;;;;;;-2.11;52.93;99320.06;109565;1252;72732;-64
2024/01/07 08:29:22;;;;;;;;;;;;;;;-2.16;52.80;99320.93;109524;1252;59864;-61
2024/01/07 08:31:49;;;;;;;;;;;;;;;-2.09;52.62;99319.55;109328;1255;59961;-62
2024/01/07 08:34:17;;;;;;;;;;;;;;;-2.26;52.80;99320.23;109299;1255;74287;-65
2024/01/07 08:36:45;;;;;;;;;;;;;;;-1.99;52.74;99321.66;109299;1255;66526;-64
2024/01/07 08:39:15;;;;;;;;;;;;;;;-2.27;52.30;99313.81;108542;1254;1002447;-61
2024/01/07 08:41:42;;;;;;;;;;;;;;;-2.32;52.12;99318.29;109356;1254;61734;-62
2024/01/07 08:44:10;;;;;;;;;;;;;;;-2.46;52.46;99316.89;109357;1254;59851;-61
2024/01/07 08:46:37;;;;;;;;;;;;;;;-2.40;52.69;99316.93;109305;1254;75561;-61
2024/01/07 08:49:05;;;;;;;;;;;;;;;-2.25;52.13;99315.23;109389;1254;68664;-64
2024/01/07 08:51:32;;;;;;;;;;;;;;;-2.31;52.36;99312.80;109380;1254;71820;-61
2024/01/07 08:54:00;;;;;;;;;;;;;;;-2.25;51.81;99314.40;109138;1253;60487;-63
2024/01/07 08:56:27;;;;;;;;;;;;;;;-2.41;52.08;99301.24;109378;1254;59897;-62
2024/01/07 08:58:55;;;;;;;;;;;;;;;-1.96;51.83;99304.14;109427;1253;74021;-61
2024/01/07 09:01:23;;;;;;;;;;;;;;;-1.96;52.12;99302.25;109185;1253;68491;-61
2024/01/07 09:03:51;;;;;;;;;;;;;;;-2.23;52.21;99301.34;109137;1253;70483;-64
2024/01/07 09:06:19;;;;;;;;;;;;;;;-2.01;51.89;99306.47;109521;1252;60530;-64
2024/01/07 09:08:46;;;;;;;;;;;;;;;-1.95;52.00;99308.05;109546;1253;59752;-61
2024/01/07 09:11:14;;;;;;;;;;;;;;;-1.81;51.92;99311.54;109547;1252;75557;-61
2024/01/07 09:13:42;;;;;;;;;;;;;;;-1.67;51.62;99319.48;109515;1252;67307;-64
2024/01/07 09:16:11;;;;;;;;;;;;;;;-1.57;52.07;99311.69;109524;1252;71433;-62
2024/01/07 09:18:39;;;;;;;;;;;;;;;-1.56;51.65;99315.48;109500;1252;60388;-63
2024/01/07 09:21:07;;;;;;;;;;;;;;;-1.55;51.81;99312.52;109483;1252;59886;-61
2024/01/07 09:23:36;;;;;;;;;;;;;;;-1.86;51.62;99305.96;109123;1253;75534;-62
2024/01/07 09:26:03;;;;;;;;;;;;;;;-2.02;51.04;99310.00;109205;1253;68825;-64
2024/01/07 09:28:31;;;;;;;;;;;;;;;-1.94;50.96;99304.46;109456;1253;71213;-61
2024/01/07 09:30:58;;;;;;;;;;;;;;;-2.18;51.03;99305.63;109509;1252;61722;-62
2024/01/07 09:33:26;;;;;;;;;;;;;;;-2.07;51.40;99305.42;109491;1252;59857;-64
2024/01/07 09:35:56;;;;;;;;;;;;;;;-2.16;50.89;99303.71;109568;1252;75532;-64
2024/01/07 09:38:37;;;;;;;;;;;;;;;-1.89;50.90;99303.56;109532;1252;67629;-63
2024/01/07 09:41:04;;;;;;;;;;;;;;;-1.86;50.80;99302.80;109520;1252;72736;-62
2024/01/07 09:43:32;;;;;;;;;;;;;;;-2.03;51.39;99298.16;109221;1253;60468;-62
2024/01/07 09:46:03;;;;;;;;;;;;;;;-1.93;50.46;99289.45;109573;1252;60154;-62
2024/01/07 09:48:30;;;;;;;;;;;;;;;-2.31;50.34;99290.11;109590;1252;75524;-64
2024/01/07 09:51:00;;;;;;;;;;;;;;;-2.49;51.28;99290.46;108854;1252;1002872;-63
2024/01/07 09:53:29;;;;;;;;;;;;;;;-2.41;51.55;99303.55;109542;1253;72737;-61
2024/01/07 09:56:01;;;;;;;;;;;;;;;-2.30;51.83;99308.65;109465;1254;60471;-61
2024/01/07 09:58:33;;;;;;;;;;;;;;;-2.08;51.87;99312.41;109584;1252;59912;-62
2024/01/07 10:01:00;;;;;;;;;;;;;;;-2.04;50.99;99300.75;109649;1252;74235;-61
2024/01/07 10:03:28;;;;;;;;;;;;;;;-1.95;50.90;99303.20;109571;1253;68869;-61
2024/01/07 10:05:55;;;;;;;;;;;;;;;-2.04;50.92;99298.99;109582;1252;73155;-63
2024/01/07 10:08:23;;;;;;;;;;;;;;;-1.98;50.79;99292.67;109575;1251;61804;-61
2024/01/07 10:10:53;;;;;;;;;;;;;;;-2.17;50.23;99290.27;109428;1253;59871;-62
2024/01/07 10:13:22;;;;;;;;;;;;;;;-2.12;50.38;99296.17;109580;1252;75508;-61
2024/01/07 10:15:49;;;;;;;;;;;;;;;-2.19;49.98;99287.60;109402;1252;67625;-60
2024/01/07 10:18:18;;;;;;;;;;;;;;;-2.25;50.23;99290.02;109577;1252;71433;-64
2024/01/07 10:20:46;;;;;;;;;;;;;;;-2.18;50.62;99295.54;109557;1252;60458;-61
2024/01/07 10:23:18;;;;;;;;;;;;;;;-2.18;50.57;99293.04;109622;1252;59741;-65
2024/01/07 10:25:47;;;;;;;;;;;;;;;-1.97;50.67;99295.88;109326;1252;74283;-64
2024/01/07 10:28:14;;;;;;;;;;;;;;;-2.02;50.29;99296.77;109565;1252;68523;-63
2024/01/07 10:30:47;;;;;;;;;;;;;;;-1.89;50.79;99290.02;109566;1252;72711;-61
2024/01/07 10:33:16;;;;;;;;;;;;;;;-1.98;51.37;99289.60;109492;1254;61746;-59
2024/01/07 10:35:45;;;;;;;;;;;;;;;-2.16;51.60;99285.99;109394;1252;59875;-60
2024/01/07 10:38:12;;;;;;;;;;;;;;;-2.24;51.90;99289.50;109500;1255;74513;-62
2024/01/07 10:40:40;;;;;;;;;;;;;;;-2.14;52.18;99292.58;109548;1252;69021;-63
2024/01/07 10:43:07;;;;;;;;;;;;;;;-1.89;51.66;99297.61;109551;1252;70485;-60
2024/01/07 10:45:35;;;;;;;;;;;;;;;-1.82;51.63;99297.94;109253;1252;60626;-59
2024/01/07 10:48:04;;;;;;;;;;;;;;;-1.97;51.31;99291.69;109603;1252;60025;-61
2024/01/07 10:50:31;;;;;;;;;;;;;;;-2.31;51.99;99289.23;109623;1253;74281;-61
2024/01/07 10:53:03;;;;;;;;;;;;;;;-2.25;52.18;99295.92;109650;1252;67351;-61
2024/01/07 10:55:33;;;;;;;;;;;;;;;-2.09;51.88;99288.29;109592;1252;70456;-65
2024/01/07 10:58:00;;;;;;;;;;;;;;;-2.02;51.60;99290.98;109613;1253;60781;-60
2024/01/07 11:00:29;;;;;;;;;;;;;;;-2.21;51.67;99284.13;109654;1252;59951;-61
2024/01/07 11:02:59;;;;;;;;;;;;;;;-2.38;51.84;99277.63;109619;1252;76029;-64
2024/01/07 11:05:30;;;;;;;;;;;;;;;-2.38;51.70;99274.67;109635;1252;67434;-65
2024/01/07 11:08:05;;;;;;;;;;;;;;;-2.53;52.00;99272.20;109547;1253;71766;-62
2024/01/07 11:10:40;;;;;;;;;;;;;;;-2.49;51.89;99270.89;108032;1253;1013977;-63
2024/01/07 11:13:31;;;;;;;;;;;;;;;-2.50;51.79;99263.04;109557;1252;59868;-61
2024/01/07 11:15:59;;;;;;;;;;;;;;;-2.60;51.89;99263.88;109533;1253;74332;-61
2024/01/07 11:18:31;;;;;;;;;;;;;;;-2.50;51.92;99263.89;109520;1252;67705;-62
2024/01/07 11:21:02;;;;;;;;;;;;;;;-2.63;51.93;99261.73;109590;1252;72740;-62
2024/01/07 11:23:40;;;;;;;;;;;;;;;-2.57;51.92;99261.32;109575;1253;60461;-61
2024/01/07 11:26:09;;;;;;;;;;;;;;;-2.80;51.88;99254.45;109503;1252;59858;-60
2024/01/07 11:28:43;;;;;;;;;;;;;;;-2.53;51.68;99260.80;109585;1252;75530;-60
2024/01/07 11:31:11;;;;;;;;;;;;;;;-2.37;51.49;99260.34;109323;1252;68863;-61
2024/01/07 11:33:39;;;;;;;;;;;;;;;-2.22;51.34;99257.94;109607;1252;71491;-64
2024/01/07 11:36:07;;;;;;;;;;;;;;;-2.19;51.29;99250.02;109279;1255;61767;-61
2024/01/07 11:38:37;;;;;;;;;;;;;;;-2.45;51.37;99242.36;109256;1255;60030;-61
2024/01/07 11:41:05;;;;;;;;;;;;;;;-2.59;51.64;99251.28;109204;1256;75521;-61
2024/01/07 11:43:35;;;;;;;;;;;;;;;-2.37;51.46;99246.21;109287;1255;68829;-62
2024/01/07 11:46:03;;;;;;;;;;;;;;;-2.33;51.29;99244.90;109212;1255;72756;-61
2024/01/07 11:48:30;;;;;;;;;;;;;;;-2.58;51.45;99246.64;109305;1254;60525;-59
2024/01/07 11:50:58;;;;;;;;;;;;;;;-2.68;51.40;99234.31;109470;1254;59758;-62
2024/01/07 11:53:26;;;;;;;;;;;;;;;-2.48;51.03;99235.13;109126;1253;75533;-64
2024/01/07 11:55:53;;;;;;;;;;;;;;;-2.66;51.46;99237.94;109388;1254;68546;-62
2024/01/07 11:58:20;;;;;;;;;;;;;;;-2.68;51.24;99241.14;109309;1255;72738;-65
2024/01/07 12:00:48;;;;;;;;;;;;;;;-2.74;51.18;99243.98;109228;1256;60491;-62
2024/01/07 12:03:16;;;;;;;;;;;;;;;-2.72;51.02;99247.56;109212;1257;59911;-61
2024/01/07 12:05:43;;;;;;;;;;;;;;;-2.73;50.90;99239.23;109238;1256;75617;-65
2024/01/07 12:08:11;;;;;;;;;;;;;;;-2.72;50.84;99244.02;109215;1254;68482;-64
2024/01/07 12:10:38;;;;;;;;;;;;;;;-2.79;51.24;99248.94;109281;1256;71439;-61
2024/01/07 12:13:06;;;;;;;;;;;;;;;-2.87;51.08;99245.43;109261;1259;60472;-64
2024/01/07 12:15:33;;;;;;;;;;;;;;;-2.63;50.90;99250.32;109263;1255;59784;-61
2024/01/07 12:18:01;;;;;;;;;;;;;;;-2.59;50.77;99250.23;109298;1254;74293;-63
2024/01/07 12:20:29;;;;;;;;;;;;;;;-2.55;49.97;99248.72;109357;1256;69011;-62
2024/01/07 12:22:57;;;;;;;;;;;;;;;-2.70;50.00;99248.51;109351;1254;72871;-62
2024/01/07 12:25:25;;;;;;;;;;;;;;;-2.60;49.19;99247.61;109087;1255;61762;-63
2024/01/07 12:27:52;;;;;;;;;;;;;;;-2.82;48.99;99244.27;109268;1254;59923;-62
2024/01/07 12:30:20;;;;;;;;;;;;;;;-2.87;49.29;99237.00;109390;1255;75552;-62
2024/01/07 12:32:48;;;;;;;;;;;;;;;-2.91;49.22;99237.95;109087;1254;67337;-63
2024/01/07 12:35:15;;;;;;;;;;;;;;;-2.62;49.53;99245.73;109033;1253;72822;-63
2024/01/07 12:37:44;;;;;;;;;;;;;;;-2.68;49.59;99239.95;109100;1256;61755;-63
2024/01/07 12:40:11;;;;;;;;;;;;;;;-2.73;49.74;99245.05;109197;1255;59868;-64
2024/01/07 12:42:44;;;;;;;;;;;;;;;-2.58;49.38;99246.29;109152;1256;74672;-62
2024/01/07 12:45:15;;;;;;;;;;;;;;;-2.72;48.96;99243.83;109097;1256;68586;-61